createdAt,value
2022-11-17T00:01:52.459Z,11.77
2022-11-17T00:04:19.090Z,11.74
2022-11-17T00:06:45.865Z,11.71
2022-11-17T00:09:17.696Z,11.69
2022-11-17T00:12:04.056Z,11.73
2022-11-17T00:14:33.473Z,11.82
2022-11-17T00:17:01.026Z,11.73
2022-11-17T00:19:46.192Z,11.77
2022-11-17T00:22:12.776Z,11.73
2022-11-17T00:24:39.369Z,11.85
2022-11-17T00:27:06.078Z,11.79
2022-11-17T00:29:32.655Z,11.83
2022-11-17T00:32:17.981Z,11.90
2022-11-17T00:34:44.857Z,11.94
2022-11-17T00:37:12.112Z,12.00
2022-11-17T00:39:38.699Z,12.00
2022-11-17T00:42:05.352Z,11.93
2022-11-17T00:44:32.003Z,11.88
2022-11-17T00:46:58.603Z,11.86
2022-11-17T00:49:25.439Z,11.82
2022-11-17T00:51:56.206Z,11.76
2022-11-17T00:54:23.181Z,11.80
2022-11-17T00:56:50.192Z,11.79
2022-11-17T00:59:17.070Z,11.72
2022-11-17T01:01:44.413Z,11.67
2022-11-17T01:04:13.124Z,11.66
2022-11-17T01:06:45.069Z,11.74
2022-11-17T01:09:20.510Z,11.77
2022-11-17T01:11:48.627Z,11.73
2022-11-17T01:14:17.952Z,11.74
2022-11-17T01:16:45.174Z,11.77
2022-11-17T01:19:14.036Z,11.74
2022-11-17T01:21:40.739Z,11.69
2022-11-17T01:24:07.779Z,11.65
2022-11-17T01:26:36.360Z,11.60
2022-11-17T01:29:04.454Z,11.55
2022-11-17T01:31:39.342Z,11.59
2022-11-17T01:34:07.104Z,11.53
2022-11-17T01:36:54.477Z,11.55
2022-11-17T01:39:21.104Z,11.53
2022-11-17T01:41:47.679Z,11.40
2022-11-17T01:44:36.161Z,11.48
2022-11-17T01:47:04.945Z,11.39
2022-11-17T01:49:31.712Z,11.43
2022-11-17T01:52:04.743Z,11.47
2022-11-17T01:54:33.639Z,11.36
2022-11-17T01:57:06.278Z,11.38
2022-11-17T01:59:38.864Z,11.38
2022-11-17T02:02:05.565Z,11.39
2022-11-17T02:04:42.551Z,11.43
2022-11-17T02:07:27.856Z,11.47
2022-11-17T02:09:55.781Z,11.51
2022-11-17T02:12:24.985Z,11.45
2022-11-17T02:14:52.449Z,11.45
2022-11-17T02:17:20.226Z,11.44
2022-11-17T02:19:56.964Z,11.48
2022-11-17T02:22:40.149Z,11.42
2022-11-17T02:25:31.615Z,11.45
2022-11-17T02:28:18.000Z,11.43
2022-11-17T02:31:22.374Z,11.49
2022-11-17T02:34:21.753Z,11.51
2022-11-17T02:37:17.648Z,11.47
2022-11-17T02:39:51.381Z,11.56
2022-11-17T02:43:10.324Z,11.68
2022-11-17T02:45:40.394Z,11.66
2022-11-17T02:48:12.462Z,11.65
2022-11-17T02:50:39.716Z,11.63
2022-11-17T02:53:06.475Z,11.69
2022-11-17T02:55:36.538Z,11.67
2022-11-17T02:58:03.221Z,11.63
2022-11-17T03:00:31.492Z,11.64
2022-11-17T03:03:30.251Z,11.60
2022-11-17T03:06:07.310Z,11.47
2022-11-17T03:09:03.719Z,11.49
2022-11-17T03:11:40.784Z,11.46
2022-11-17T03:14:20.716Z,11.52
2022-11-17T03:16:50.251Z,11.47
2022-11-17T03:19:23.971Z,11.46
2022-11-17T03:22:06.472Z,11.45
2022-11-17T03:24:37.282Z,11.40
2022-11-17T03:27:15.505Z,11.39
2022-11-17T03:29:44.758Z,11.38
2022-11-17T03:32:11.628Z,11.39
2022-11-17T03:34:43.934Z,11.38
2022-11-17T03:37:12.908Z,11.40
2022-11-17T03:39:44.575Z,11.45
2022-11-17T03:42:17.054Z,11.42
2022-11-17T03:44:47.025Z,11.37
2022-11-17T03:47:14.105Z,11.35
2022-11-17T03:49:50.489Z,11.38
2022-11-17T03:52:17.688Z,11.35
2022-11-17T03:54:44.395Z,11.45
2022-11-17T03:57:23.794Z,11.44
2022-11-17T03:59:55.354Z,11.42
2022-11-17T04:02:22.739Z,11.45
2022-11-17T04:05:07.652Z,11.45
2022-11-17T04:07:37.497Z,11.46
2022-11-17T04:10:05.417Z,11.39
2022-11-17T04:12:50.635Z,11.43
2022-11-17T04:15:36.351Z,11.34
2022-11-17T04:18:04.044Z,11.35
2022-11-17T04:20:37.088Z,11.34
2022-11-17T04:23:14.082Z,11.36
2022-11-17T04:26:08.625Z,11.35
2022-11-17T04:28:37.045Z,11.37
2022-11-17T04:31:23.710Z,11.46
2022-11-17T04:33:52.195Z,11.48
2022-11-17T04:36:24.668Z,11.51
2022-11-17T04:38:53.411Z,11.56
2022-11-17T04:41:40.100Z,11.52
2022-11-17T04:44:08.068Z,11.49
2022-11-17T04:46:36.122Z,11.46
2022-11-17T04:49:04.169Z,11.45
2022-11-17T04:51:31.289Z,11.48
2022-11-17T04:53:58.229Z,11.42
2022-11-17T04:56:25.564Z,11.33
2022-11-17T04:58:52.450Z,11.39
2022-11-17T05:01:21.118Z,11.46
2022-11-17T05:03:49.964Z,11.46
2022-11-17T05:06:19.673Z,11.48
2022-11-17T05:08:46.322Z,11.52
2022-11-17T05:11:32.662Z,11.57
2022-11-17T05:13:59.851Z,11.59
2022-11-17T05:16:45.134Z,11.61
2022-11-17T05:19:18.043Z,11.68
2022-11-17T05:21:44.672Z,11.64
2022-11-17T05:24:11.536Z,11.68
2022-11-17T05:26:38.467Z,11.66
2022-11-17T05:29:06.772Z,11.66
2022-11-17T05:31:34.087Z,11.65
2022-11-17T05:34:01.723Z,11.53
2022-11-17T05:36:28.936Z,11.51
2022-11-17T05:38:56.238Z,11.46
2022-11-17T05:41:23.521Z,11.43
2022-11-17T05:43:50.657Z,11.33
2022-11-17T05:46:20.704Z,11.34
2022-11-17T05:48:50.014Z,11.31
2022-11-17T05:51:22.819Z,11.29
2022-11-17T05:53:50.109Z,11.30
2022-11-17T05:56:33.828Z,11.26
2022-11-17T05:59:07.383Z,11.25
2022-11-17T06:01:35.044Z,11.34
2022-11-17T06:04:04.001Z,11.31
2022-11-17T06:06:30.784Z,11.37
2022-11-17T06:08:57.339Z,11.36
2022-11-17T06:11:23.938Z,11.37
2022-11-17T06:13:50.626Z,11.35
2022-11-17T06:16:20.227Z,11.35
2022-11-17T06:18:52.961Z,11.43
2022-11-17T06:21:19.591Z,11.47
2022-11-17T06:23:47.659Z,11.44
2022-11-17T06:26:15.197Z,11.49
2022-11-17T06:28:43.914Z,11.49
2022-11-17T06:31:10.716Z,11.49
2022-11-17T06:33:37.833Z,11.48
2022-11-17T06:36:06.513Z,11.49
2022-11-17T06:38:35.846Z,11.46
2022-11-17T06:41:10.577Z,11.50
2022-11-17T06:43:38.860Z,11.57
2022-11-17T06:46:05.972Z,11.60
2022-11-17T06:48:36.014Z,11.65
2022-11-17T06:51:04.905Z,11.64
2022-11-17T06:53:33.360Z,11.64
2022-11-17T06:56:02.931Z,11.67
2022-11-17T06:58:29.783Z,11.67
2022-11-17T07:01:08.098Z,11.66
2022-11-17T07:03:36.703Z,11.68
2022-11-17T07:06:05.337Z,11.65
2022-11-17T07:08:32.668Z,11.64
2022-11-17T07:11:07.892Z,11.63
2022-11-17T07:13:35.081Z,11.62
2022-11-17T07:16:04.665Z,11.62
2022-11-17T07:18:31.409Z,11.65
2022-11-17T07:21:03.080Z,11.65
2022-11-17T07:23:31.248Z,11.68
2022-11-17T07:25:58.030Z,11.69
2022-11-17T07:28:24.801Z,11.68
2022-11-17T07:30:51.543Z,11.77
2022-11-17T07:33:18.309Z,11.73
2022-11-17T07:35:45.029Z,11.74
2022-11-17T07:38:11.675Z,11.75
2022-11-17T07:40:38.497Z,11.75
2022-11-17T07:43:11.227Z,11.79
2022-11-17T07:45:37.880Z,11.81
2022-11-17T07:48:06.417Z,11.79
2022-11-17T07:50:33.808Z,11.83
2022-11-17T07:53:09.576Z,11.81
2022-11-17T07:55:36.272Z,11.78
2022-11-17T07:58:03.096Z,11.79
2022-11-17T08:00:31.996Z,11.73
2022-11-17T08:03:02.206Z,11.65
2022-11-17T08:05:30.813Z,11.70
2022-11-17T08:07:58.626Z,11.67
2022-11-17T08:10:31.151Z,11.66
2022-11-17T08:12:59.881Z,11.63
2022-11-17T08:15:28.597Z,11.67
2022-11-17T08:17:56.983Z,11.70
2022-11-17T08:20:24.896Z,11.71
2022-11-17T08:22:52.430Z,11.73
2022-11-17T08:25:23.167Z,11.71
2022-11-17T08:27:52.235Z,11.66
2022-11-17T08:30:20.606Z,11.71
2022-11-17T08:32:52.447Z,11.64
2022-11-17T08:35:21.607Z,11.65
2022-11-17T08:37:48.345Z,11.60
2022-11-17T08:40:15.569Z,11.57
2022-11-17T08:42:42.224Z,11.59
2022-11-17T08:45:09.324Z,11.57
2022-11-17T08:47:35.996Z,11.58
2022-11-17T08:50:03.400Z,11.58
2022-11-17T08:52:30.027Z,11.60
2022-11-17T08:54:56.772Z,11.57
2022-11-17T08:57:23.902Z,11.53
2022-11-17T08:59:50.864Z,11.57
2022-11-17T09:02:17.544Z,11.59
2022-11-17T09:04:46.200Z,11.63
2022-11-17T09:07:12.922Z,11.68
2022-11-17T09:09:39.951Z,11.71
2022-11-17T09:12:06.760Z,11.73
2022-11-17T09:14:33.676Z,11.70
2022-11-17T09:17:00.319Z,11.74
2022-11-17T09:19:27.141Z,11.81
2022-11-17T09:21:53.836Z,11.83
2022-11-17T09:24:20.593Z,11.90
2022-11-17T09:26:47.231Z,11.94
2022-11-17T09:29:14.220Z,11.99
2022-11-17T09:31:41.216Z,12.06
2022-11-17T09:34:08.208Z,12.12
2022-11-17T09:36:35.243Z,12.12
2022-11-17T09:39:01.962Z,12.14
2022-11-17T09:41:38.119Z,12.16
2022-11-17T09:44:28.796Z,12.16
2022-11-17T09:47:24.215Z,12.18
2022-11-17T09:50:04.454Z,12.20
2022-11-17T09:53:16.325Z,12.20
2022-11-17T09:55:45.875Z,12.25
2022-11-17T09:58:31.230Z,12.29
2022-11-17T10:00:57.959Z,12.29
2022-11-17T10:03:31.822Z,12.30
2022-11-17T10:05:59.395Z,12.36
2022-11-17T10:08:37.692Z,12.38
2022-11-17T10:11:24.367Z,12.44
2022-11-17T10:13:51.402Z,12.46
2022-11-17T10:16:18.068Z,12.51
2022-11-17T10:18:44.749Z,12.58
2022-11-17T10:21:16.379Z,12.65
2022-11-17T10:23:55.450Z,12.63
2022-11-17T10:26:22.365Z,12.68
2022-11-17T10:29:08.708Z,12.72
2022-11-17T10:31:41.596Z,12.74
2022-11-17T10:34:13.358Z,12.81
2022-11-17T10:36:48.197Z,12.85
2022-11-17T10:39:40.265Z,12.80
2022-11-17T10:42:29.780Z,12.91
2022-11-17T10:45:00.946Z,12.88
2022-11-17T10:47:37.873Z,12.86
2022-11-17T10:50:27.651Z,12.95
2022-11-17T10:52:58.786Z,13.31
2022-11-17T10:55:36.059Z,13.39
2022-11-17T10:58:19.339Z,13.21
2022-11-17T11:01:12.452Z,13.13
2022-11-17T11:03:59.222Z,13.11
2022-11-17T11:06:29.619Z,13.07
2022-11-17T11:09:19.181Z,12.98
2022-11-17T11:11:51.144Z,12.86
2022-11-17T11:14:20.772Z,12.84
2022-11-17T11:16:49.076Z,12.87
2022-11-17T11:19:17.569Z,12.90
2022-11-17T11:22:05.994Z,12.88
2022-11-17T11:24:35.297Z,12.89
2022-11-17T11:27:26.193Z,12.87
2022-11-17T11:30:06.038Z,12.85
2022-11-17T11:32:55.340Z,12.85
2022-11-17T11:35:46.289Z,12.88
2022-11-17T11:38:37.651Z,12.90
2022-11-17T11:41:49.710Z,12.87
2022-11-17T11:44:31.564Z,12.88
2022-11-17T11:47:16.411Z,12.89
2022-11-17T11:49:51.151Z,12.89
2022-11-17T11:52:22.757Z,12.87
2022-11-17T11:54:54.678Z,12.86
2022-11-17T11:57:29.088Z,12.88
2022-11-17T12:00:02.477Z,12.87
2022-11-17T12:02:46.288Z,12.85
2022-11-17T12:05:37.590Z,12.84
2022-11-17T12:08:10.612Z,12.80
2022-11-17T12:11:00.906Z,12.81
2022-11-17T12:13:32.083Z,12.80
2022-11-17T12:16:27.783Z,12.80
2022-11-17T12:18:56.443Z,12.76
2022-11-17T12:21:29.628Z,12.81
2022-11-17T12:24:18.810Z,12.80
2022-11-17T12:26:45.456Z,12.82
2022-11-17T12:29:21.389Z,12.81
2022-11-17T12:31:49.941Z,12.79
2022-11-17T12:34:26.780Z,12.78
2022-11-17T12:37:15.956Z,12.73
2022-11-17T12:39:59.409Z,12.69
2022-11-17T12:42:27.892Z,12.68
2022-11-17T12:44:59.424Z,12.70
2022-11-17T12:47:34.183Z,12.70
2022-11-17T12:50:10.175Z,12.73
2022-11-17T12:52:49.148Z,12.76
2022-11-17T12:55:26.661Z,12.77
2022-11-17T12:58:07.667Z,12.76
2022-11-17T13:01:15.628Z,12.77
2022-11-17T13:04:08.525Z,12.80
2022-11-17T13:06:36.568Z,12.79
2022-11-17T13:09:12.550Z,12.78
2022-11-17T13:11:39.304Z,12.80
2022-11-17T13:14:10.540Z,12.84
2022-11-17T13:16:43.044Z,12.88
2022-11-17T13:19:51.427Z,12.87
2022-11-17T13:22:29.092Z,12.88
2022-11-17T13:24:57.847Z,12.89
2022-11-17T13:27:27.247Z,12.90
2022-11-17T13:30:21.851Z,12.91
2022-11-17T13:32:48.883Z,12.97
2022-11-17T13:35:45.048Z,12.95
2022-11-17T13:38:11.618Z,12.97
2022-11-17T13:40:40.087Z,12.98
2022-11-17T13:43:12.020Z,12.95
2022-11-17T13:45:38.672Z,12.96
2022-11-17T13:48:05.409Z,12.94
2022-11-17T13:50:33.256Z,12.93
2022-11-17T13:53:06.361Z,12.93
2022-11-17T13:55:34.183Z,12.90
2022-11-17T13:58:22.250Z,12.90
2022-11-17T14:00:58.647Z,12.90
2022-11-17T14:03:37.264Z,12.92
2022-11-17T14:06:05.966Z,12.94
2022-11-17T14:08:34.667Z,12.94
2022-11-17T14:11:10.382Z,12.94
2022-11-17T14:13:54.142Z,12.95
2022-11-17T14:16:22.626Z,12.97
2022-11-17T14:19:15.850Z,12.96
2022-11-17T14:22:26.173Z,12.96
2022-11-17T14:24:57.541Z,12.97
2022-11-17T14:27:27.195Z,13.02
2022-11-17T14:29:53.856Z,12.99
2022-11-17T14:32:20.503Z,13.01
2022-11-17T14:34:47.216Z,13.01
2022-11-17T14:37:14.004Z,13.00
2022-11-17T14:39:40.717Z,13.03
2022-11-17T14:42:08.765Z,13.06
2022-11-17T14:44:35.410Z,13.05
2022-11-17T14:47:02.030Z,13.04
2022-11-17T14:49:28.894Z,13.03
2022-11-17T14:51:59.135Z,13.02
2022-11-17T14:54:26.169Z,12.98
2022-11-17T14:56:52.750Z,13.04
2022-11-17T14:59:19.580Z,13.02
2022-11-17T15:01:46.245Z,13.03
2022-11-17T15:04:48.269Z,13.09
2022-11-17T15:07:01.913Z,13.10
2022-11-17T15:09:28.560Z,13.10
2022-11-17T15:11:55.259Z,13.08
2022-11-17T15:14:22.338Z,13.06
2022-11-17T15:16:49.365Z,13.01
2022-11-17T15:19:16.203Z,13.02
2022-11-17T15:21:42.843Z,13.02
2022-11-17T15:24:09.666Z,13.02
2022-11-17T15:26:36.335Z,13.03
2022-11-17T15:29:02.991Z,13.01
2022-11-17T15:31:29.887Z,13.01
2022-11-17T15:33:56.527Z,13.06
2022-11-17T15:36:24.043Z,13.02
2022-11-17T15:38:50.782Z,12.99
2022-11-17T15:41:32.785Z,13.03
2022-11-17T15:43:59.694Z,13.04
2022-11-17T15:46:26.513Z,13.04
2022-11-17T15:48:53.350Z,13.05
2022-11-17T15:51:22.421Z,13.04
2022-11-17T15:53:50.343Z,13.01
2022-11-17T15:56:22.716Z,13.00
2022-11-17T15:58:54.851Z,12.96
2022-11-17T16:01:27.434Z,12.95
2022-11-17T16:04:02.170Z,12.96
2022-11-17T16:06:29.917Z,13.00
2022-11-17T16:08:58.492Z,13.05
2022-11-17T16:11:27.115Z,13.03
2022-11-17T16:13:54.756Z,12.99
2022-11-17T16:16:22.150Z,13.03
2022-11-17T16:18:48.930Z,13.03
2022-11-17T16:21:16.389Z,13.02
2022-11-17T16:23:45.416Z,13.01
2022-11-17T16:26:13.552Z,13.02
2022-11-17T16:28:40.616Z,12.98
2022-11-17T16:31:25.046Z,12.99
2022-11-17T16:33:54.087Z,12.93
2022-11-17T16:36:23.049Z,12.94
2022-11-17T16:39:00.869Z,12.94
2022-11-17T16:41:33.425Z,12.91
2022-11-17T16:44:00.820Z,12.93
2022-11-17T16:46:29.587Z,12.90
2022-11-17T16:48:57.109Z,12.87
2022-11-17T16:51:24.864Z,12.83
2022-11-17T16:53:56.667Z,12.82
2022-11-17T16:56:23.714Z,12.80
2022-11-17T16:58:50.514Z,12.80
2022-11-17T17:01:19.674Z,12.73
2022-11-17T17:03:55.604Z,12.70
2022-11-17T17:06:37.310Z,12.71
2022-11-17T17:09:06.993Z,12.72
2022-11-17T17:11:35.237Z,12.75
2022-11-17T17:14:03.515Z,12.77
2022-11-17T17:16:32.563Z,12.76
2022-11-17T17:19:00.714Z,12.77
2022-11-17T17:21:31.013Z,12.74
2022-11-17T17:23:57.885Z,12.74
2022-11-17T17:26:27.338Z,12.73
2022-11-17T17:28:56.275Z,12.68
2022-11-17T17:31:24.737Z,12.66
2022-11-17T17:33:52.021Z,12.65
2022-11-17T17:36:20.780Z,12.63
2022-11-17T17:38:53.351Z,12.62
2022-11-17T17:41:22.988Z,12.56
2022-11-17T17:43:54.966Z,12.53
2022-11-17T17:46:21.559Z,12.43
2022-11-17T17:48:48.302Z,12.37
2022-11-17T17:51:18.017Z,12.38
2022-11-17T17:53:44.999Z,12.39
2022-11-17T17:56:13.876Z,12.32
2022-11-17T17:58:42.252Z,12.32
2022-11-17T18:01:14.471Z,12.26
2022-11-17T18:03:48.271Z,12.29
2022-11-17T18:06:16.989Z,12.31
2022-11-17T18:08:44.197Z,12.31
2022-11-17T18:11:13.180Z,12.36
2022-11-17T18:13:42.490Z,12.34
2022-11-17T18:16:14.127Z,12.31
2022-11-17T18:18:41.238Z,12.32
2022-11-17T18:21:10.288Z,12.37
2022-11-17T18:23:37.667Z,12.33
2022-11-17T18:26:12.609Z,12.32
2022-11-17T18:28:39.769Z,12.30
2022-11-17T18:31:08.552Z,12.31
2022-11-17T18:33:35.895Z,12.30
2022-11-17T18:36:08.114Z,12.38
2022-11-17T18:38:36.549Z,12.35
2022-11-17T18:41:11.267Z,12.33
2022-11-17T18:43:38.947Z,12.29
2022-11-17T18:46:08.232Z,12.29
2022-11-17T18:48:36.756Z,12.32
2022-11-17T18:51:19.036Z,12.33
2022-11-17T18:53:47.718Z,12.30
2022-11-17T18:56:16.252Z,12.26
2022-11-17T18:58:43.776Z,12.22
2022-11-17T19:01:24.822Z,12.22
2022-11-17T19:03:53.661Z,12.23
2022-11-17T19:06:21.986Z,12.24
2022-11-17T19:08:49.402Z,12.22
2022-11-17T19:11:17.410Z,12.18
2022-11-17T19:13:44.677Z,12.19
2022-11-17T19:16:22.783Z,12.26
2022-11-17T19:18:51.708Z,12.20
2022-11-17T19:21:27.112Z,12.20
2022-11-17T19:24:00.231Z,12.20
2022-11-17T19:26:30.470Z,12.17
2022-11-17T19:29:01.717Z,12.18
2022-11-17T19:31:41.058Z,12.18
2022-11-17T19:34:08.084Z,12.13
2022-11-17T19:36:35.394Z,12.13
2022-11-17T19:39:03.464Z,12.08
2022-11-17T19:41:32.733Z,12.12
2022-11-17T19:44:00.940Z,12.13
2022-11-17T19:46:28.522Z,12.00
2022-11-17T19:48:56.024Z,12.05
2022-11-17T19:51:26.641Z,12.00
2022-11-17T19:53:55.871Z,12.01
2022-11-17T19:56:23.796Z,11.97
2022-11-17T19:58:51.249Z,11.94
2022-11-17T20:01:20.933Z,12.01
2022-11-17T20:03:48.048Z,11.93
2022-11-17T20:06:17.035Z,11.85
2022-11-17T20:08:44.302Z,11.79
2022-11-17T20:11:16.826Z,11.87
2022-11-17T20:13:43.906Z,11.89
2022-11-17T20:16:12.948Z,11.81
2022-11-17T20:18:43.315Z,11.82
2022-11-17T20:21:11.288Z,11.73
2022-11-17T20:23:39.099Z,11.76
2022-11-17T20:26:12.201Z,11.73
2022-11-17T20:28:39.209Z,11.75
2022-11-17T20:31:12.386Z,11.81
2022-11-17T20:33:40.113Z,11.76
2022-11-17T20:36:08.117Z,11.68
2022-11-17T20:38:36.181Z,11.62
2022-11-17T20:41:03.713Z,11.59
2022-11-17T20:43:30.529Z,11.57
2022-11-17T20:45:58.020Z,11.45
2022-11-17T20:48:25.297Z,11.39
2022-11-17T20:51:05.969Z,11.39
2022-11-17T20:53:33.436Z,11.44
2022-11-17T20:56:01.537Z,11.45
2022-11-17T20:58:29.050Z,11.30
2022-11-17T21:00:55.961Z,11.28
2022-11-17T21:03:23.181Z,11.35
2022-11-17T21:05:59.210Z,11.39
2022-11-17T21:08:38.350Z,11.25
2022-11-17T21:11:07.349Z,11.21
2022-11-17T21:13:35.346Z,11.22
2022-11-17T21:16:08.433Z,11.18
2022-11-17T21:18:36.108Z,11.20
2022-11-17T21:21:08.725Z,11.14
2022-11-17T21:23:37.409Z,11.22
2022-11-17T21:26:08.428Z,11.08
2022-11-17T21:28:38.618Z,11.05
2022-11-17T21:31:25.285Z,11.07
2022-11-17T21:33:56.530Z,11.03
2022-11-17T21:36:24.426Z,11.01
2022-11-17T21:38:51.291Z,11.08
2022-11-17T21:41:20.520Z,11.01
2022-11-17T21:43:49.386Z,10.94
2022-11-17T21:46:24.114Z,10.94
2022-11-17T21:48:52.078Z,10.94
2022-11-17T21:51:24.778Z,10.92
2022-11-17T21:53:58.497Z,10.93
2022-11-17T21:56:26.920Z,10.86
2022-11-17T21:58:58.002Z,10.84
2022-11-17T22:01:25.224Z,10.82
2022-11-17T22:03:51.871Z,10.77
2022-11-17T22:06:20.406Z,10.85
2022-11-17T22:08:47.779Z,10.84
2022-11-17T22:11:35.684Z,10.83
2022-11-17T22:14:02.823Z,10.89
2022-11-17T22:16:29.439Z,10.78
2022-11-17T22:18:56.173Z,10.78
2022-11-17T22:21:23.028Z,10.66
2022-11-17T22:23:49.973Z,10.65
2022-11-17T22:26:16.564Z,10.72
2022-11-17T22:28:43.193Z,10.81
2022-11-17T22:31:10.116Z,10.85
2022-11-17T22:33:40.172Z,10.74
2022-11-17T22:36:07.870Z,10.76
2022-11-17T22:38:34.622Z,10.74
2022-11-17T22:41:05.916Z,10.75
2022-11-17T22:43:33.417Z,10.79
2022-11-17T22:46:05.273Z,10.78
2022-11-17T22:48:32.515Z,10.77
2022-11-17T22:51:00.099Z,10.76
2022-11-17T22:53:27.434Z,10.81
2022-11-17T22:55:54.392Z,10.81
2022-11-17T22:58:21.343Z,10.66
2022-11-17T23:00:48.025Z,10.74
2022-11-17T23:03:14.632Z,10.72
2022-11-17T23:05:41.292Z,10.74
2022-11-17T23:08:09.917Z,10.84
2022-11-17T23:10:37.315Z,10.82
2022-11-17T23:13:04.318Z,10.91
2022-11-17T23:15:32.197Z,10.91
2022-11-17T23:17:59.222Z,10.95
2022-11-17T23:20:25.880Z,10.99
2022-11-17T23:22:54.406Z,11.04
2022-11-17T23:25:21.278Z,10.98
2022-11-17T23:27:48.043Z,10.87
2022-11-17T23:30:14.706Z,10.82
2022-11-17T23:32:41.367Z,10.89
2022-11-17T23:35:08.517Z,10.97
2022-11-17T23:37:35.185Z,11.04
2022-11-17T23:40:02.277Z,10.99
2022-11-17T23:42:32.399Z,11.02
2022-11-17T23:44:59.313Z,10.98
2022-11-17T23:47:25.963Z,10.95
2022-11-17T23:49:52.567Z,11.01
2022-11-17T23:52:19.177Z,11.03
2022-11-17T23:54:45.790Z,11.06
2022-11-17T23:57:12.426Z,11.07
2022-11-17T23:59:39.120Z,11.08
